createdAt,value
2022-10-14T00:01:31.477Z,6.05
2022-10-14T00:03:58.319Z,5.93
2022-10-14T00:06:27.579Z,7.00
2022-10-14T00:08:54.325Z,6.07
2022-10-14T00:11:23.088Z,6.55
2022-10-14T00:13:49.934Z,8.68
2022-10-14T00:16:18.351Z,5.35
2022-10-14T00:18:45.218Z,5.60
2022-10-14T00:21:11.847Z,6.15
2022-10-14T00:23:38.418Z,5.43
2022-10-14T00:26:05.236Z,5.45
2022-10-14T00:28:32.098Z,4.32
2022-10-14T00:30:59.964Z,4.80
2022-10-14T00:33:26.907Z,4.35
2022-10-14T00:35:56.290Z,4.07
2022-10-14T00:38:23.232Z,4.40
2022-10-14T00:40:49.910Z,4.63
2022-10-14T00:43:16.605Z,4.55
2022-10-14T00:45:43.182Z,5.00
2022-10-14T00:48:10.017Z,4.35
2022-10-14T00:50:37.066Z,4.30
2022-10-14T00:53:03.654Z,4.82
2022-10-14T00:55:30.252Z,3.75
2022-10-14T00:57:56.918Z,4.75
2022-10-14T01:00:23.726Z,3.92
2022-10-14T01:02:50.322Z,4.88
2022-10-14T01:05:17.738Z,4.40
2022-10-14T01:08:04.731Z,3.95
2022-10-14T01:10:54.500Z,4.35
2022-10-14T01:13:26.829Z,3.88
2022-10-14T01:16:15.911Z,4.05
2022-10-14T01:18:55.966Z,4.03
2022-10-14T01:21:43.040Z,4.10
2022-10-14T01:24:34.952Z,4.05
2022-10-14T01:32:37.631Z,2.60
2022-10-14T01:35:30.013Z,2.67
2022-10-14T01:38:30.604Z,2.53
2022-10-14T01:41:14.748Z,2.80
2022-10-14T01:43:41.366Z,2.17
2022-10-14T01:46:08.147Z,2.40
2022-10-14T01:48:37.031Z,2.40
2022-10-14T01:51:06.575Z,2.40
2022-10-14T01:53:37.969Z,2.63
2022-10-14T01:56:04.648Z,2.55
2022-10-14T01:58:31.717Z,2.35
2022-10-14T02:00:58.301Z,2.63
2022-10-14T02:03:24.883Z,2.78
2022-10-14T02:09:11.097Z,2.30
2022-10-14T02:11:57.520Z,3.40
2022-10-14T02:14:53.697Z,2.25
2022-10-14T02:17:27.300Z,2.55
2022-10-14T02:20:07.747Z,2.83
2022-10-14T02:22:38.069Z,2.58
2022-10-14T02:25:09.525Z,2.70
2022-10-14T02:27:36.100Z,2.55
2022-10-14T02:30:04.768Z,2.40
2022-10-14T02:32:31.402Z,3.00
2022-10-14T02:34:58.593Z,2.92
2022-10-14T02:37:25.633Z,2.42
2022-10-14T02:39:59.338Z,2.03
2022-10-14T02:42:26.718Z,2.70
2022-10-14T02:44:55.000Z,2.80
2022-10-14T02:47:22.301Z,3.13
2022-10-14T02:49:48.908Z,2.30
2022-10-14T02:52:15.459Z,2.25
2022-10-14T02:54:42.030Z,2.97
2022-10-14T02:57:08.727Z,2.92
2022-10-14T02:59:35.420Z,3.03
2022-10-14T03:02:02.197Z,2.08
2022-10-14T03:04:28.877Z,3.20
2022-10-14T03:06:55.514Z,2.63
2022-10-14T03:09:22.099Z,2.55
2022-10-14T03:11:48.693Z,2.88
2022-10-14T03:14:15.354Z,2.70
2022-10-14T03:16:41.938Z,2.35
2022-10-14T03:19:08.523Z,3.25
2022-10-14T03:21:35.082Z,2.45
2022-10-14T03:24:01.678Z,2.55
2022-10-14T03:26:28.706Z,2.70
2022-10-14T03:28:55.366Z,3.33
2022-10-14T03:31:22.065Z,3.10
2022-10-14T03:33:48.634Z,3.75
2022-10-14T03:36:15.262Z,3.60
2022-10-14T03:38:41.859Z,2.90
2022-10-14T03:41:08.442Z,3.08
2022-10-14T03:43:35.120Z,3.08
2022-10-14T03:46:01.737Z,3.17
2022-10-14T03:48:28.302Z,3.17
2022-10-14T03:50:54.862Z,3.28
2022-10-14T03:53:21.489Z,4.50
2022-10-14T03:55:48.054Z,3.90
2022-10-14T03:58:14.626Z,3.05
2022-10-14T04:00:41.217Z,3.03
2022-10-14T04:03:07.914Z,3.25
2022-10-14T04:05:34.951Z,3.58
2022-10-14T04:08:01.609Z,2.85
2022-10-14T04:10:28.234Z,3.15
2022-10-14T04:12:55.005Z,3.00
2022-10-14T04:15:22.839Z,2.78
2022-10-14T04:17:49.526Z,3.50
2022-10-14T04:20:16.686Z,3.22
2022-10-14T04:22:43.319Z,3.13
2022-10-14T04:25:10.185Z,2.70
2022-10-14T04:27:36.992Z,3.63
2022-10-14T04:30:04.638Z,2.97
2022-10-14T04:32:31.230Z,3.55
2022-10-14T04:34:57.880Z,3.13
2022-10-14T04:37:24.517Z,3.45
2022-10-14T04:39:51.094Z,3.08
2022-10-14T04:42:17.658Z,3.85
2022-10-14T04:44:44.300Z,3.75
2022-10-14T04:47:10.882Z,3.05
2022-10-14T04:49:37.466Z,3.85
2022-10-14T04:52:04.082Z,3.53
2022-10-14T04:54:30.926Z,3.65
2022-10-14T04:56:57.519Z,3.05
2022-10-14T04:59:24.159Z,4.68
2022-10-14T05:01:50.806Z,3.13
2022-10-14T05:04:17.511Z,3.80
2022-10-14T05:06:44.263Z,3.33
2022-10-14T05:09:10.908Z,4.05
2022-10-14T05:11:37.493Z,3.17
2022-10-14T05:14:04.070Z,3.72
2022-10-14T05:16:31.077Z,4.10
2022-10-14T05:18:57.677Z,4.43
2022-10-14T05:21:24.307Z,3.42
2022-10-14T05:23:50.989Z,3.25
2022-10-14T05:26:17.700Z,3.60
2022-10-14T05:28:44.326Z,4.15
2022-10-14T05:31:11.040Z,4.18
2022-10-14T05:33:37.694Z,4.38
2022-10-14T05:36:04.536Z,3.17
2022-10-14T05:38:32.731Z,3.33
2022-10-14T05:40:59.715Z,3.60
2022-10-14T05:43:31.841Z,3.30
2022-10-14T05:45:59.522Z,3.85
2022-10-14T05:48:26.100Z,3.80
2022-10-14T05:50:52.841Z,3.30
2022-10-14T05:53:19.648Z,2.75
2022-10-14T05:55:46.270Z,3.13
2022-10-14T05:58:12.809Z,3.63
2022-10-14T06:00:39.477Z,4.20
2022-10-14T06:03:06.170Z,3.53
2022-10-14T06:05:35.772Z,3.72
2022-10-14T06:08:02.327Z,3.60
2022-10-14T06:10:28.919Z,3.05
2022-10-14T06:12:56.566Z,3.58
2022-10-14T06:15:23.169Z,4.30
2022-10-14T06:17:49.994Z,3.42
2022-10-14T06:20:16.585Z,3.72
2022-10-14T06:22:43.247Z,3.65
2022-10-14T06:25:09.826Z,3.13
2022-10-14T06:27:36.446Z,2.75
2022-10-14T06:30:03.658Z,3.67
2022-10-14T06:32:30.269Z,3.72
2022-10-14T06:34:56.932Z,2.55
2022-10-14T06:37:23.690Z,2.65
2022-10-14T06:39:50.277Z,3.78
2022-10-14T06:42:16.935Z,4.00
2022-10-14T06:44:43.613Z,4.43
2022-10-14T06:47:10.229Z,2.95
2022-10-14T06:49:37.010Z,3.75
2022-10-14T06:52:04.100Z,2.90
2022-10-14T06:54:33.465Z,3.47
2022-10-14T06:57:02.193Z,3.17
2022-10-14T06:59:29.121Z,3.05
2022-10-14T07:01:56.015Z,2.53
2022-10-14T07:04:22.940Z,2.55
2022-10-14T07:06:49.590Z,2.65
2022-10-14T07:09:16.281Z,2.47
2022-10-14T07:11:43.129Z,3.08
2022-10-14T07:14:10.270Z,2.83
2022-10-14T07:16:37.000Z,2.97
2022-10-14T07:19:03.747Z,2.08
2022-10-14T07:21:31.082Z,2.38
2022-10-14T07:23:57.741Z,2.63
2022-10-14T07:26:24.340Z,3.30
2022-10-14T07:28:51.021Z,3.03
2022-10-14T07:31:17.792Z,2.40
2022-10-14T07:33:44.768Z,3.22
2022-10-14T07:36:16.161Z,3.10
2022-10-14T07:38:45.341Z,6.72
2022-10-14T07:41:20.636Z,2.47
2022-10-14T07:43:52.370Z,1.95
2022-10-14T07:46:29.069Z,2.30
2022-10-14T07:48:57.704Z,3.83
2022-10-14T07:51:25.388Z,1.92
2022-10-14T07:53:52.989Z,2.20
2022-10-14T07:56:20.242Z,2.40
2022-10-14T07:58:46.894Z,2.67
2022-10-14T08:01:15.326Z,3.08
2022-10-14T08:03:43.689Z,1.77
2022-10-14T08:06:10.469Z,2.05
2022-10-14T08:08:37.193Z,2.65
2022-10-14T08:11:06.057Z,1.73
2022-10-14T08:13:32.864Z,1.95
2022-10-14T08:15:59.531Z,2.60
2022-10-14T08:18:26.493Z,1.70
2022-10-14T08:20:53.172Z,2.28
2022-10-14T08:23:20.143Z,1.23
2022-10-14T08:25:47.436Z,1.30
2022-10-14T08:28:14.248Z,0.93
2022-10-14T08:30:41.076Z,0.68
2022-10-14T08:33:07.706Z,1.02
2022-10-14T08:35:34.465Z,1.02
2022-10-14T08:38:01.540Z,1.30
2022-10-14T08:40:28.760Z,1.23
2022-10-14T08:43:24.647Z,1.20
2022-10-14T08:45:54.459Z,1.20
2022-10-14T08:48:22.631Z,0.82
2022-10-14T08:51:11.403Z,1.20
2022-10-14T08:53:40.514Z,0.85
2022-10-14T08:56:07.263Z,1.33
2022-10-14T08:58:35.793Z,0.82
2022-10-14T09:01:12.628Z,1.00
2022-10-14T09:03:40.756Z,0.88
2022-10-14T09:06:16.829Z,2.25
2022-10-14T09:08:44.807Z,1.35
2022-10-14T09:11:14.622Z,0.60
2022-10-14T09:13:43.134Z,0.88
2022-10-14T09:16:29.989Z,0.60
2022-10-14T09:18:59.272Z,0.88
2022-10-14T09:24:32.501Z,0.85
2022-10-14T09:27:05.294Z,0.80
2022-10-14T09:29:37.441Z,1.00
2022-10-14T09:32:06.087Z,0.60
2022-10-14T09:34:36.271Z,1.30
2022-10-14T09:37:26.097Z,1.20
2022-10-14T09:39:55.062Z,1.30
2022-10-14T09:42:24.520Z,1.20
2022-10-14T09:45:15.796Z,1.40
2022-10-14T09:48:06.981Z,1.13
2022-10-14T09:50:43.738Z,1.10
2022-10-14T09:53:24.361Z,1.15
2022-10-14T09:56:00.979Z,0.70
2022-10-14T09:58:45.330Z,1.70
2022-10-14T10:01:20.526Z,0.85
2022-10-14T10:03:48.394Z,1.30
2022-10-14T10:06:19.003Z,2.13
2022-10-14T10:09:01.235Z,3.25
2022-10-14T10:14:33.052Z,0.80
2022-10-14T10:17:19.735Z,0.80
2022-10-14T10:19:47.554Z,1.38
2022-10-14T10:25:18.246Z,2.60
2022-10-14T10:27:46.250Z,1.95
2022-10-14T10:30:36.210Z,1.52
2022-10-14T10:33:41.298Z,1.05
2022-10-14T10:36:30.460Z,2.33
2022-10-14T10:39:00.426Z,2.58
2022-10-14T10:41:37.722Z,2.40
2022-10-14T10:44:28.164Z,1.00
2022-10-14T10:47:02.736Z,1.25
2022-10-14T10:49:45.469Z,1.45
2022-10-14T10:52:21.439Z,0.98
2022-10-14T11:00:39.341Z,1.50
2022-10-14T11:03:37.626Z,2.30
2022-10-14T11:06:46.453Z,1.30
2022-10-14T11:09:39.547Z,4.85
2022-10-14T11:15:03.510Z,1.45
2022-10-14T11:17:53.872Z,1.60
2022-10-14T11:20:29.005Z,1.60
2022-10-14T11:23:04.624Z,1.83
2022-10-14T11:25:44.404Z,1.48
2022-10-14T11:28:28.263Z,0.80
2022-10-14T11:31:01.512Z,3.30
2022-10-14T11:33:55.109Z,2.22
2022-10-14T11:36:31.441Z,2.50
2022-10-14T11:39:21.317Z,2.50
2022-10-14T11:42:27.793Z,3.28
2022-10-14T11:45:21.345Z,2.60
2022-10-14T11:47:48.785Z,3.90
2022-10-14T11:50:22.118Z,2.10
2022-10-14T11:55:47.535Z,2.05
2022-10-14T11:58:17.450Z,2.47
2022-10-14T12:00:44.706Z,1.80
2022-10-14T12:03:24.163Z,2.00
2022-10-14T12:06:30.824Z,1.90
2022-10-14T12:09:00.269Z,2.00
2022-10-14T12:14:16.802Z,2.47
2022-10-14T12:16:44.263Z,2.10
2022-10-14T12:19:11.760Z,2.42
2022-10-14T12:22:01.246Z,1.73
2022-10-14T12:24:31.159Z,1.83
2022-10-14T12:26:58.838Z,1.48
2022-10-14T12:29:28.186Z,2.58
2022-10-14T12:32:21.363Z,1.83
2022-10-14T12:34:49.779Z,2.00
2022-10-14T12:40:26.292Z,3.15
2022-10-14T12:43:03.029Z,2.45
2022-10-14T12:45:31.656Z,2.80
2022-10-14T12:48:21.104Z,2.33
2022-10-14T12:50:48.544Z,2.28
2022-10-14T12:53:21.673Z,1.90
2022-10-14T12:55:54.799Z,2.30
2022-10-14T12:58:26.222Z,2.15
2022-10-14T13:00:54.840Z,2.40
2022-10-14T13:03:24.356Z,2.83
2022-10-14T13:05:50.989Z,3.05
2022-10-14T13:13:48.918Z,2.75
2022-10-14T13:18:58.828Z,2.70
2022-10-14T13:21:45.811Z,2.92
2022-10-14T13:24:35.230Z,2.58
2022-10-14T13:27:14.041Z,2.10
2022-10-14T13:30:05.133Z,2.55
2022-10-14T13:32:43.084Z,1.65
2022-10-14T13:38:06.946Z,2.28
2022-10-14T13:40:37.246Z,1.70
2022-10-14T13:43:26.714Z,1.85
2022-10-14T13:45:57.457Z,2.08
2022-10-14T13:48:33.526Z,2.50
2022-10-14T13:51:36.141Z,2.22
2022-10-14T13:54:24.604Z,2.45
2022-10-14T13:57:42.702Z,1.75
2022-10-14T14:02:48.044Z,2.90
2022-10-14T14:05:18.554Z,3.00
2022-10-14T14:10:32.030Z,2.10
2022-10-14T14:12:59.832Z,2.10
2022-10-14T14:15:27.217Z,3.15
2022-10-14T14:17:53.852Z,3.22
2022-10-14T14:20:23.748Z,1.67
2022-10-14T14:22:50.543Z,1.80
2022-10-14T14:25:33.982Z,2.15
2022-10-14T14:28:02.283Z,2.60
2022-10-14T14:30:32.934Z,3.25
2022-10-14T14:33:16.766Z,5.00
2022-10-14T14:35:50.386Z,3.15
2022-10-14T14:38:26.396Z,5.50
2022-10-14T14:41:05.830Z,3.15
2022-10-14T14:43:36.480Z,2.22
2022-10-14T14:46:04.311Z,2.55
2022-10-14T14:48:31.202Z,5.55
2022-10-14T14:50:57.833Z,2.13
2022-10-14T14:53:29.441Z,2.13
2022-10-14T14:58:38.148Z,6.50
2022-10-14T15:01:06.542Z,2.78
2022-10-14T15:03:35.628Z,1.98
2022-10-14T15:06:03.846Z,2.53
2022-10-14T15:08:32.455Z,1.77
2022-10-14T15:10:59.428Z,1.70
2022-10-14T15:13:50.647Z,1.63
2022-10-14T15:16:37.838Z,2.22
2022-10-14T15:22:29.938Z,2.85
2022-10-14T15:25:01.141Z,4.30
2022-10-14T15:27:35.360Z,5.15
2022-10-14T15:30:34.950Z,4.68
2022-10-14T15:33:20.048Z,4.10
2022-10-14T15:35:53.758Z,4.93
2022-10-14T15:38:20.346Z,3.85
2022-10-14T15:40:47.422Z,3.42
2022-10-14T15:43:17.588Z,3.13
2022-10-14T15:45:45.466Z,2.20
2022-10-14T15:48:20.170Z,2.30
2022-10-14T15:50:47.179Z,2.30
2022-10-14T15:53:13.741Z,2.30
2022-10-14T15:55:40.317Z,2.40
2022-10-14T15:58:07.417Z,1.92
2022-10-14T16:00:34.021Z,2.53
2022-10-14T16:03:00.814Z,2.63
2022-10-14T16:05:29.019Z,1.98
2022-10-14T16:07:56.381Z,2.45
2022-10-14T16:10:23.334Z,2.42
2022-10-14T16:12:50.006Z,2.88
2022-10-14T16:18:09.491Z,4.47
2022-10-14T16:20:36.157Z,4.00
2022-10-14T16:23:04.529Z,3.42
2022-10-14T16:25:36.220Z,3.65
2022-10-14T16:28:07.523Z,4.43
2022-10-14T16:30:37.193Z,3.88
2022-10-14T16:33:04.067Z,3.80
2022-10-14T16:35:31.066Z,4.07
2022-10-14T16:37:58.038Z,4.40
2022-10-14T16:40:25.097Z,3.40
2022-10-14T16:42:51.938Z,4.03
2022-10-14T16:45:18.521Z,3.03
2022-10-14T16:47:45.121Z,3.35
2022-10-14T16:50:11.852Z,2.47
2022-10-14T16:53:00.865Z,2.47
2022-10-14T16:55:30.579Z,2.17
2022-10-14T16:57:57.256Z,2.28
2022-10-14T17:00:23.848Z,2.80
2022-10-14T17:02:50.518Z,3.25
2022-10-14T17:05:17.154Z,3.05
2022-10-14T17:07:43.858Z,3.63
2022-10-14T17:10:10.879Z,3.58
2022-10-14T17:12:37.898Z,3.88
2022-10-14T17:15:05.713Z,4.55
2022-10-14T17:17:32.645Z,4.38
2022-10-14T17:19:59.325Z,3.75
2022-10-14T17:22:26.649Z,5.75
2022-10-14T17:24:54.262Z,3.30
2022-10-14T17:27:24.018Z,3.10
2022-10-14T17:29:50.870Z,3.42
2022-10-14T17:32:18.262Z,3.33
2022-10-14T17:34:44.972Z,4.32
2022-10-14T17:37:11.568Z,3.03
2022-10-14T17:39:38.436Z,2.78
2022-10-14T17:42:05.119Z,2.80
2022-10-14T17:44:32.668Z,2.50
2022-10-14T17:47:00.619Z,2.97
2022-10-14T17:49:27.416Z,3.15
2022-10-14T17:51:54.026Z,3.70
2022-10-14T17:54:20.778Z,3.33
2022-10-14T17:56:47.389Z,2.75
2022-10-14T17:59:14.274Z,2.45
2022-10-14T18:02:01.598Z,2.47
2022-10-14T18:04:27.941Z,2.58
2022-10-14T18:06:54.518Z,2.90
2022-10-14T18:09:21.187Z,3.10
2022-10-14T18:14:37.813Z,2.80
2022-10-14T18:17:05.048Z,2.47
2022-10-14T18:19:31.669Z,2.60
2022-10-14T18:21:58.414Z,2.40
2022-10-14T18:24:25.175Z,2.40
2022-10-14T18:26:52.194Z,3.92
2022-10-14T18:29:18.826Z,3.50
2022-10-14T18:31:45.448Z,3.10
2022-10-14T18:34:12.072Z,3.72
2022-10-14T18:36:38.778Z,3.10
2022-10-14T18:39:06.933Z,2.72
2022-10-14T18:41:33.609Z,2.97
2022-10-14T18:44:00.300Z,3.38
2022-10-14T18:46:28.739Z,3.60
2022-10-14T18:48:56.674Z,3.25
2022-10-14T18:51:26.515Z,2.83
2022-10-14T18:53:55.059Z,3.85
2022-10-14T18:56:23.736Z,2.92
2022-10-14T18:58:54.397Z,3.25
2022-10-14T19:01:21.110Z,2.78
2022-10-14T19:03:47.759Z,3.05
2022-10-14T19:06:15.067Z,2.70
2022-10-14T19:08:42.502Z,3.67
2022-10-14T19:11:10.867Z,2.33
2022-10-14T19:13:39.761Z,2.80
2022-10-14T19:16:09.425Z,1.98
2022-10-14T19:18:35.980Z,3.22
2022-10-14T19:21:04.742Z,3.53
2022-10-14T19:23:31.474Z,3.47
2022-10-14T19:25:59.172Z,3.58
2022-10-14T19:28:25.928Z,2.75
2022-10-14T19:30:52.537Z,2.83
2022-10-14T19:33:19.225Z,2.65
2022-10-14T19:35:58.906Z,3.00
2022-10-14T19:38:25.805Z,2.90
2022-10-14T19:40:52.394Z,3.20
2022-10-14T19:43:19.045Z,2.58
2022-10-14T19:45:47.009Z,3.17
2022-10-14T19:48:16.171Z,3.47
2022-10-14T19:50:42.821Z,2.42
2022-10-14T19:53:09.600Z,2.85
2022-10-14T19:55:36.362Z,2.90
2022-10-14T19:58:03.319Z,3.47
2022-10-14T20:00:29.949Z,3.05
2022-10-14T20:02:56.591Z,2.67
2022-10-14T20:05:23.172Z,3.38
2022-10-14T20:07:49.778Z,3.28
2022-10-14T20:10:19.519Z,3.20
2022-10-14T20:12:46.115Z,3.28
2022-10-14T20:15:12.792Z,3.45
2022-10-14T20:17:39.471Z,2.92
2022-10-14T20:20:06.693Z,3.17
2022-10-14T20:22:33.374Z,4.05
2022-10-14T20:24:59.967Z,3.05
2022-10-14T20:27:26.811Z,3.22
2022-10-14T20:29:53.530Z,3.15
2022-10-14T20:32:20.164Z,2.65
2022-10-14T20:34:46.778Z,2.95
2022-10-14T20:37:13.374Z,3.38
2022-10-14T20:39:39.946Z,3.63
2022-10-14T20:42:08.002Z,3.70
2022-10-14T20:44:34.714Z,2.53
2022-10-14T20:47:01.375Z,2.95
2022-10-14T20:49:27.962Z,3.38
2022-10-14T20:51:54.612Z,2.90
2022-10-14T20:54:21.353Z,2.50
2022-10-14T20:56:48.762Z,2.40
2022-10-14T20:59:15.539Z,3.05
2022-10-14T21:01:42.186Z,3.22
2022-10-14T21:04:08.853Z,2.75
2022-10-14T21:06:35.592Z,3.03
2022-10-14T21:09:02.918Z,3.55
2022-10-14T21:11:29.602Z,2.30
2022-10-14T21:13:57.483Z,2.58
2022-10-14T21:16:30.339Z,2.17
2022-10-14T21:19:00.055Z,2.63
2022-10-14T21:21:27.891Z,2.30
2022-10-14T21:23:55.113Z,2.03
2022-10-14T21:26:21.869Z,2.50
2022-10-14T21:28:48.639Z,3.15
2022-10-14T21:31:18.745Z,2.88
2022-10-14T21:33:47.409Z,2.60
2022-10-14T21:36:14.809Z,2.17
2022-10-14T21:38:41.629Z,2.33
2022-10-14T21:41:08.344Z,2.42
2022-10-14T21:43:35.751Z,2.45
2022-10-14T21:46:03.444Z,3.17
2022-10-14T21:48:30.326Z,2.83
2022-10-14T21:51:06.281Z,2.85
2022-10-14T21:53:33.073Z,3.17
2022-10-14T21:55:59.837Z,3.50
2022-10-14T21:58:26.617Z,3.10
2022-10-14T22:01:00.739Z,3.08
2022-10-14T22:03:27.377Z,3.22
2022-10-14T22:06:01.304Z,2.63
2022-10-14T22:08:30.324Z,6.57
2022-10-14T22:10:56.897Z,12.38
2022-10-14T22:13:23.831Z,2.67
2022-10-14T22:15:50.526Z,3.03
2022-10-14T22:18:17.111Z,2.40
2022-10-14T22:20:43.759Z,2.00
2022-10-14T22:23:10.331Z,2.25
2022-10-14T22:25:36.913Z,2.22
2022-10-14T22:28:03.999Z,2.47
2022-10-14T22:30:30.766Z,4.07
2022-10-14T22:32:57.469Z,2.97
2022-10-14T22:35:24.189Z,5.38
2022-10-14T22:37:50.807Z,3.65
2022-10-14T22:40:18.050Z,2.03
2022-10-14T22:42:49.019Z,2.22
2022-10-14T22:45:17.970Z,2.80
2022-10-14T22:47:44.559Z,2.00
2022-10-14T22:50:11.198Z,2.30
2022-10-14T22:52:38.149Z,2.53
2022-10-14T22:55:05.365Z,2.50
2022-10-14T22:57:31.944Z,1.85
2022-10-14T22:59:58.575Z,2.45
2022-10-14T23:02:25.734Z,2.40
2022-10-14T23:04:52.641Z,2.60
2022-10-14T23:07:19.441Z,1.88
2022-10-14T23:09:46.118Z,2.30
2022-10-14T23:12:12.754Z,1.90
2022-10-14T23:14:39.339Z,1.88
2022-10-14T23:17:05.937Z,1.73
2022-10-14T23:19:32.506Z,2.10
2022-10-14T23:21:59.167Z,2.47
2022-10-14T23:24:26.173Z,2.28
2022-10-14T23:26:52.756Z,1.63
2022-10-14T23:29:19.431Z,1.70
2022-10-14T23:31:46.068Z,1.90
2022-10-14T23:34:13.423Z,1.40
2022-10-14T23:36:40.134Z,2.58
2022-10-14T23:39:06.840Z,2.70
2022-10-14T23:41:33.438Z,2.15
2022-10-14T23:44:00.066Z,1.45
2022-10-14T23:46:26.746Z,2.30
2022-10-14T23:49:07.056Z,2.10
2022-10-14T23:51:40.734Z,2.30
2022-10-14T23:54:07.738Z,1.83
2022-10-14T23:56:34.290Z,1.90
2022-10-14T23:59:00.858Z,1.95
